• Join FlightAware (Why Join?)
  • Login
  • US Flag GB Flag 
21:15 EDT


 

Airport Tracker/Info


-or-


 

Live Flight TrackerFlight Track Log ✈ CTL13 ✈ 12-Apr-2013 ✈ KBKL - KEYE

Flight Track Log - Related Links

Times and Time Zones

All times are in EDT time to prevent confusion due to time zone crossing. See the CTL13 flight status page for this flight to view local times or setup timezone preferences in your user account.

Time Position Orientation Groundspeed Altitude Reporting Facility
EDT Latitude Longitude Course Direction KTS MPH feet Rate Location/Type
18:32 41.5144 -81.7089 338° Northwest 122 140 1,200  Level Cleveland Center
18:32 41.5250 -81.7147 338° Northwest 131 151 1,500 600 Climbing Cleveland Center
18:33 41.5664 -81.7294 345° North 170 196 2,000 240 Climbing Cleveland Center
18:34 41.5806 -81.7822 290° West 164 189 2,000 480 Level Cleveland Center
18:36 41.5842 -81.8350 275° West 129 148 3,000 1,080 Climbing Cleveland Center
18:37 41.5858 -81.8797 273° West 110 127 4,200 900 Climbing Cleveland Center
18:37 41.5853 -81.9156 269° West 115 132 4,800 660 Climbing Cleveland Center
18:38 41.5661 -81.9569 238° Southwest 120 138 5,500 840 Climbing Cleveland Center
18:39 41.5531 -81.9956 246° West 114 131 6,600 1,020 Climbing Cleveland Center
18:40 41.5381 -82.0283 239° Southwest 89 102 7,600 840 Climbing Cleveland Center
18:41 41.5272 -82.0558 242° Southwest 94 108 8,400 540 Climbing Cleveland Center
18:43 41.5122 -82.0944 243° Southwest 119 137 8,700 420 Climbing Cleveland Center
18:44 41.4992 -82.1331 246° West 116 133 9,300 480 Climbing Cleveland Center
18:44 41.4819 -82.1686 237° Southwest 119 137 9,700 300 Climbing Cleveland Center
18:46 41.4647 -82.2153 244° Southwest 118 136 10,000 120 Climbing Cleveland Center
18:47 41.4475 -82.2592 242° Southwest 124 143 10,000  Level Cleveland Center
18:48 41.4300 -82.3031 242° Southwest 135 155 10,000  Level Cleveland Center
18:49 41.4128 -82.3467 242° Southwest 135 155 10,000  Level Cleveland Center
18:50 41.3953 -82.3878 240° Southwest 135 155 10,000  Level Cleveland Center
18:51 41.3800 -82.4317 245° Southwest 135 155 10,000  Level Cleveland Center
18:52 41.3628 -82.4756 242° Southwest 135 155 10,000  Level Cleveland Center
18:53 41.3475 -82.5164 244° Southwest 135 155 10,000  Level Cleveland Center
18:54 41.3300 -82.5575 240° Southwest 135 155 10,100  Climbing Cleveland Center
18:55 41.3128 -82.5983 241° Southwest 135 155 10,000 -60 Descending Cleveland Center
18:56 41.2950 -82.6447 243° Southwest 135 155 10,000  Level Cleveland Center
18:57 41.2778 -82.6858 241° Southwest 135 155 10,000  Level Cleveland Center
18:58 41.2581 -82.7294 239° Southwest 135 155 10,000  Level Cleveland Center
18:59 41.2406 -82.7731 242° Southwest 135 155 10,000  Level Cleveland Center
19:00 41.2208 -82.8219 242° Southwest 135 155 10,000  Level Cleveland Center
19:01 41.2033 -82.8656 242° Southwest 135 155 10,000  Level Cleveland Center
19:02 41.1858 -82.9092 242° Southwest 135 155 10,000  Level Cleveland Center
19:03 41.1683 -82.9497 240° Southwest 135 155 10,000  Level Cleveland Center
19:04 41.1486 -82.9933 239° Southwest 135 155 10,000  Level Cleveland Center
19:05 41.1311 -83.0339 240° Southwest 135 155 10,000  Level Cleveland Center
19:06 41.1133 -83.0775 242° Southwest 135 155 10,000  Level Cleveland Center
19:07 41.0981 -83.1181 243° Southwest 135 155 10,000  Level Cleveland Center
19:08 41.0803 -83.1617 242° Southwest 135 155 10,000  Level Cleveland Center
19:09 41.0628 -83.2022 240° Southwest 135 155 10,000  Level Cleveland Center
19:10 41.0450 -83.2428 240° Southwest 135 155 10,000  Level Cleveland Center
19:11 41.0275 -83.2833 240° Southwest 130 150 10,000  Level Cleveland Center
19:12 41.0097 -83.3239 240° Southwest 137 158 10,000  Level Cleveland Center
19:13 40.9900 -83.3669 239° Southwest 137 158 10,000  Level Cleveland Center
19:15 40.9447 -83.4678 239° Southwest 131 151 10,000  Level Indianapolis Center
19:16 40.9258 -83.5094 239° Southwest 131 151 10,000  Level Indianapolis Center
19:17 40.9089 -83.5481 240° Southwest 130 150 10,000  Level Indianapolis Center
19:18 40.8839 -83.5950 235° Southwest 132 152 10,000  Level Indianapolis Center
19:19 40.8656 -83.6367 240° Southwest 130 150 10,000  Level Indianapolis Center
19:20 40.8467 -83.6781 239° Southwest 130 150 10,000  Level Indianapolis Center
19:21 40.8289 -83.7203 241° Southwest 130 150 10,000  Level Indianapolis Center
19:22 40.8075 -83.7597 234° Southwest 130 150 10,000  Level Indianapolis Center
19:23 40.7897 -83.8006 240° Southwest 128 147 10,000  Level Indianapolis Center
19:24 40.7697 -83.8408 237° Southwest 129 148 10,000  Level Indianapolis Center
19:25 40.7497 -83.8808 237° Southwest 130 150 10,000  Level Indianapolis Center
19:26 40.7278 -83.9275 238° Southwest 130 150 10,000  Level Indianapolis Center
19:27 40.7078 -83.9675 237° Southwest 130 150 10,000  Level Indianapolis Center
19:29 40.6928 -84.0114 246° West 130 150 10,000  Level Indianapolis Center
19:29 40.6867 -84.0258 241° Southwest 130 150 10,000  Level Indianapolis Center
19:30 40.6767 -84.0536 245° Southwest 129 148 10,000  Level Indianapolis Center
19:30 40.6681 -84.0758 243° Southwest 133 153 10,000  Level Indianapolis Center
19:31 40.6603 -84.0983 246° West 132 152 10,000  Level Indianapolis Center
19:31 40.6522 -84.1203 244° Southwest 132 152 10,000  Level Indianapolis Center
19:32 40.6436 -84.1425 243° Southwest 134 154 10,000  Level Indianapolis Center
19:32 40.6386 -84.1597 249° West 135 155 10,000 -120 Level Indianapolis Center
19:33 40.6275 -84.1869 242° Southwest 134 154 9,900 -60 Descending Indianapolis Center
19:34 40.6111 -84.2319 244° Southwest 134 154 9,900  Level Indianapolis Center
19:34 40.6042 -84.2514 245° Southwest 135 155 9,900  Level Indianapolis Center
19:35 40.5917 -84.2831 243° Southwest 134 154 9,900  Level Indianapolis Center
19:35 40.5853 -84.3039 248° West 135 155 9,900  Level Indianapolis Center
19:36 40.5758 -84.3278 243° Southwest 134 154 9,900  Level Indianapolis Center
19:36 40.5694 -84.3458 245° Southwest 131 151 9,900 60 Level Indianapolis Center
19:37 40.5589 -84.3719 242° Southwest 134 154 10,000 60 Climbing Indianapolis Center
19:37 40.5517 -84.3872 238° Southwest 132 152 10,000 -120 Level Indianapolis Center
19:38 40.5419 -84.4144 245° Southwest 133 153 9,900 -60 Descending Indianapolis Center
19:39 40.5231 -84.4586 241° Southwest 134 154 9,900 60 Level Indianapolis Center
19:39 40.5172 -84.4758 246° West 136 157 10,000 60 Climbing Indianapolis Center
19:40 40.5069 -84.5047 245° Southwest 136 157 10,000  Level Indianapolis Center
19:41 40.4911 -84.5481 244° Southwest 134 154 10,000  Level Indianapolis Center
19:42 40.4742 -84.5922 243° Southwest 134 154 10,000 -60 Level Indianapolis Center
19:43 40.4578 -84.6369 244° Southwest 134 154 9,900 -120 Descending Indianapolis Center
19:43 40.4503 -84.6561 243° Southwest 135 155 9,900  Level Indianapolis Center
19:44 40.4381 -84.6889 244° Southwest 135 155 9,900  Level Indianapolis Center
19:45 40.4242 -84.7347 248° West 135 155 10,000  Climbing Indianapolis Center
19:46 40.4089 -84.7797 246° West 134 154 9,900 -60 Descending Indianapolis Center
19:47 40.3925 -84.8236 244° Southwest 133 153 9,900  Level Indianapolis Center
19:47 40.3842 -84.8442 242° Southwest 135 155 9,900  Level Indianapolis Center
19:48 40.3739 -84.8681 241° Southwest 134 154 9,900  Level Indianapolis Center
19:48 40.3664 -84.8828 236° Southwest 136 157 9,900 60 Level Indianapolis Center
19:49 40.3544 -84.9122 242° Southwest 136 157 10,000  Climbing Indianapolis Center
19:50 40.3325 -84.9525 234° Southwest 135 155 9,900  Descending Indianapolis Center
19:50 40.3233 -84.9697 235° Southwest 138 159 10,000 60 Climbing Indianapolis Center
19:51 40.3139 -84.9978 246° West 138 159 10,000 -60 Level Indianapolis Center
19:52 40.2953 -85.0533 246° West 134 154 9,900 -60 Descending Indianapolis Center
19:53 40.2781 -85.1056 247° West 134 154 9,900  Level Indianapolis Center
19:54 40.2617 -85.1497 244° Southwest 135 155 9,900  Level Indianapolis Center
19:55 40.2483 -85.1847 243° Southwest 135 155 10,000  Climbing Indianapolis Center
19:56 40.2317 -85.2275 243° Southwest 133 153 9,900 -180 Descending Indianapolis Center
19:57 40.2136 -85.2728 242° Southwest 135 155 9,700 -420 Descending Indianapolis Center
19:58 40.1967 -85.3217 246° West 140 161 9,100 -720 Descending Indianapolis Center
19:59 40.1778 -85.3753 245° Southwest 150 173 8,300 -780 Descending Indianapolis Center
20:00 40.1544 -85.4292 240° Southwest 159 183 7,500 -540 Descending Indianapolis Center
20:01 40.1306 -85.4844 241° Southwest 163 188 7,300 -600 Descending Indianapolis Center
20:04 40.1000 -85.6167 253° West 147 169 5,500 -780 Descending Indianapolis TRACON
20:05 40.0833 -85.6667 246° West 153 176 4,800 -720 Descending Indianapolis TRACON
20:06 40.0833 -85.7167 270° West 159 183 4,200 -480 Descending Indianapolis TRACON
20:07 40.0667 -85.7667 246° West 154 177 3,900 -120 Descending Indianapolis TRACON
20:08 40.0500 -85.8167 246° West 140 161 4,000  Climbing Indianapolis TRACON
20:09 40.0500 -85.8667 270° West 137 158 4,000  Level Indianapolis TRACON
20:10 40.0333 -85.9000 237° Southwest 136 157 4,000 -60 Level Indianapolis TRACON
20:11 40.0333 -85.9667 270° West 135 155 3,900 -420 Descending Indianapolis TRACON
20:12 40.0000 -86.0167 229° Southwest 155 178 3,100 -780 Descending Indianapolis TRACON